Time;durP1;ratioP1;P1;durP2;ratioP2;P2;SDS_P1;SDS_P2;PMS_P1;PMS_P2;Temp;Humidity;BMP_temperature;BMP_pressure;BME280_temperature;BME280_humidity;BME280_pressure;Samples;Min_cycle;Max_cycle;Signal;HPM_P1;HPM_P2
2022/07/19 00:00:38;;;;;;;;;;;;;;;;;;5037370;28;19923;-27
2022/07/19 00:03:04;;;;;;;;;;;;;;;;;;5037314;28;19909;-27
2022/07/19 00:05:30;;;;;;;;;;;;;;;;;;5037284;28;19967;-27
2022/07/19 00:07:56;;;;;;;;;;;;;;;;;;5037187;28;19913;-27
2022/07/19 00:10:22;;;;;;;;;;;;;;;;;;5037180;28;19940;-27
2022/07/19 00:12:48;;;;;;;;;;;;;;;;;;5037411;28;20225;-27
2022/07/19 00:15:14;;;;;;;;;;;;;;;;;;5037387;28;20264;-27
2022/07/19 00:17:40;;;;;;;;;;;;;;;;;;5037043;28;19961;-27
2022/07/19 00:20:06;;;;;;;;;;;;;;;;;;5036417;28;20363;-27
2022/07/19 00:22:31;;;;;;;;;;;;;;;;;;5036873;28;19913;-27
2022/07/19 00:24:57;;;;;;;;;;;;;;;;;;5036930;28;19920;-27
2022/07/19 00:27:23;;;;;;;;;;;;;;;;;;5037440;28;19996;-27
2022/07/19 00:29:49;;;;;;;;;;;;;;;;;;5036746;28;19975;-27
2022/07/19 00:32:15;;;;;;;;;;;;;;;;;;5036730;28;19913;-27
2022/07/19 00:34:41;;;;;;;;;;;;;;;;;;5037004;28;19913;-27
2022/07/19 00:37:07;;;;;;;;;;;;;;;;;;5037237;28;19935;-27
2022/07/19 00:39:33;;;;;;;;;;;;;;;;;;5036911;28;19909;-27
2022/07/19 00:41:59;;;;;;;;;;;;;;;;;;5036449;28;20314;-27
2022/07/19 00:44:25;;;;;;;;;;;;;;;;;;5036608;28;19948;-27
2022/07/19 00:46:51;;;;;;;;;;;;;;;;;;5036515;28;19956;-27
2022/07/19 00:49:17;;;;;;;;;;;;;;;;;;5036408;28;19939;-27
2022/07/19 00:51:43;;;;;;;;;;;;;;;;;;5036655;28;20348;-27
2022/07/19 00:54:09;;;;;;;;;;;;;;;;;;5036235;28;20058;-27
2022/07/19 00:56:35;;;;;;;;;;;;;;;;;;5036310;28;19962;-27
2022/07/19 00:59:01;;;;;;;;;;;;;;;;;;5036280;28;19913;-27
2022/07/19 01:01:28;;;;;;;;;;;;;;;;;;5036181;28;20263;-27
2022/07/19 01:03:54;;;;;;;;;;;;;;;;;;5036125;28;20233;-27
2022/07/19 01:06:20;;;;;;;;;;;;;;;;;;5036423;28;20004;-27
2022/07/19 01:08:46;;;;;;;;;;;;;;;;;;5035993;28;20267;-27
2022/07/19 01:11:12;;;;;;;;;;;;;;;;;;5036037;28;19909;-27
2022/07/19 01:13:38;;;;;;;;;;;;;;;;;;5036157;28;19914;-27
2022/07/19 01:16:04;;;;;;;;;;;;;;;;;;5036212;28;19913;-27
2022/07/19 01:18:30;;;;;;;;;;;;;;;;;;5035913;28;19936;-27
2022/07/19 01:20:56;;;;;;;;;;;;;;;;;;5035895;28;19917;-27
2022/07/19 01:23:22;;;;;;;;;;;;;;;;;;5036004;28;19932;-27
2022/07/19 01:25:48;;;;;;;;;;;;;;;;;;5035803;28;19913;-27
2022/07/19 01:28:14;;;;;;;;;;;;;;;;;;5035920;28;20252;-27
2022/07/19 01:30:40;;;;;;;;;;;;;;;;;;5035389;28;19913;-27
2022/07/19 01:33:06;;;;;;;;;;;;;;;;;;5035894;28;19983;-27
2022/07/19 01:35:32;;;;;;;;;;;;;;;;;;5036197;28;19921;-27
2022/07/19 01:37:58;;;;;;;;;;;;;;;;;;5035559;28;19960;-27
2022/07/19 01:40:24;;;;;;;;;;;;;;;;;;5035590;28;20255;-27
2022/07/19 01:42:50;;;;;;;;;;;;;;;;;;5035985;28;19913;-27
2022/07/19 01:45:16;;;;;;;;;;;;;;;;;;5035290;28;19921;-27
2022/07/19 01:47:42;;;;;;;;;;;;;;;;;;5035362;28;19963;-27
2022/07/19 01:50:08;;;;;;;;;;;;;;;;;;5035723;28;20410;-27
2022/07/19 01:52:34;;;;;;;;;;;;;;;;;;5035546;28;19913;-27
2022/07/19 01:55:00;;;;;;;;;;;;;;;;;;5035360;28;19913;-27
2022/07/19 01:57:26;;;;;;;;;;;;;;;;;;5035275;28;19924;-27
2022/07/19 01:59:52;;;;;;;;;;;;;;;;;;5035547;28;19919;-27
2022/07/19 02:02:18;;;;;;;;;;;;;;;;;;5035176;28;20004;-27
2022/07/19 02:04:44;;;;;;;;;;;;;;;;;;5035511;28;19915;-27
2022/07/19 02:07:10;;;;;;;;;;;;;;;;;;5035214;28;19917;-27
2022/07/19 02:09:36;;;;;;;;;;;;;;;;;;5035416;28;19917;-27
2022/07/19 02:12:02;;;;;;;;;;;;;;;;;;5035328;28;20004;-27
2022/07/19 02:14:28;;;;;;;;;;;;;;;;;;5035164;28;19910;-27
2022/07/19 02:16:54;;;;;;;;;;;;;;;;;;5035625;28;19913;-27
2022/07/19 02:19:21;;;;;;;;;;;;;;;;;;5035359;28;19940;-27
2022/07/19 02:21:47;;;;;;;;;;;;;;;;;;5034976;28;19945;-27
2022/07/19 02:24:13;;;;;;;;;;;;;;;;;;5035616;28;20344;-27
2022/07/19 02:26:39;;;;;;;;;;;;;;;;;;5035052;28;20278;-27
2022/07/19 02:29:05;;;;;;;;;;;;;;;;;;5034966;28;19917;-27
2022/07/19 02:31:31;;;;;;;;;;;;;;;;;;5034990;28;19917;-27
2022/07/19 02:33:57;;;;;;;;;;;;;;;;;;5035167;28;19909;-27
2022/07/19 02:36:23;;;;;;;;;;;;;;;;;;5034923;28;20034;-27
2022/07/19 02:38:49;;;;;;;;;;;;;;;;;;5035168;28;20368;-27
2022/07/19 02:41:16;;;;;;;;;;;;;;;;;;5034829;28;19913;-27
2022/07/19 02:43:42;;;;;;;;;;;;;;;;;;5038241;28;19979;-27
2022/07/19 02:46:08;;;;;;;;;;;;;;;;;;5039341;28;20352;-27
2022/07/19 02:48:34;;;;;;;;;;;;;;;;;;5039191;28;19914;-27
2022/07/19 02:51:00;;;;;;;;;;;;;;;;;;5038899;28;19917;-27
2022/07/19 02:53:26;;;;;;;;;;;;;;;;;;5038578;28;20336;-27
2022/07/19 02:55:53;;;;;;;;;;;;;;;;;;5038572;28;20356;-27
2022/07/19 02:58:19;;;;;;;;;;;;;;;;;;5038825;28;19909;-26
2022/07/19 03:00:45;;;;;;;;;;;;;;;;;;5038548;28;20302;-27
2022/07/19 03:05:55;;;;;;;;;;;;;;;;;;5038516;28;19924;-26
2022/07/19 03:08:21;;;;;;;;;;;;;;;;;;5038314;28;19917;-27
2022/07/19 03:10:47;;;;;;;;;;;;;;;;;;5038851;28;19913;-27
2022/07/19 03:13:13;;;;;;;;;;;;;;;;;;5038758;28;20000;-27
2022/07/19 03:15:39;;;;;;;;;;;;;;;;;;5038547;28;19913;-26
2022/07/19 03:18:05;;;;;;;;;;;;;;;;;;5038184;28;19913;-27
2022/07/19 03:20:31;;;;;;;;;;;;;;;;;;5038160;28;20055;-27
2022/07/19 03:22:57;;;;;;;;;;;;;;;;;;5038058;28;19913;-27
2022/07/19 03:25:23;;;;;;;;;;;;;;;;;;5038117;28;20011;-27
2022/07/19 03:27:49;;;;;;;;;;;;;;;;;;5037010;28;19913;-27
2022/07/19 03:30:15;;;;;;;;;;;;;;;;;;5038008;28;19909;-27
2022/07/19 03:32:41;;;;;;;;;;;;;;;;;;5038433;28;19913;-27
2022/07/19 03:35:07;;;;;;;;;;;;;;;;;;5038169;28;19910;-27
2022/07/19 03:37:33;;;;;;;;;;;;;;;;;;5038419;28;19913;-27
2022/07/19 03:39:59;;;;;;;;;;;;;;;;;;5037781;28;20306;-27
2022/07/19 03:42:25;;;;;;;;;;;;;;;;;;5037910;28;19909;-27
2022/07/19 03:44:51;;;;;;;;;;;;;;;;;;5037564;28;20348;-27
2022/07/19 03:47:17;;;;;;;;;;;;;;;;;;5037629;28;19913;-27
2022/07/19 03:49:43;;;;;;;;;;;;;;;;;;5038114;28;20324;-27
2022/07/19 03:52:09;;;;;;;;;;;;;;;;;;5037458;28;19914;-27
2022/07/19 03:54:35;;;;;;;;;;;;;;;;;;5036752;28;19913;-27
2022/07/19 03:57:01;;;;;;;;;;;;;;;;;;5037989;28;20347;-27
2022/07/19 03:59:27;;;;;;;;;;;;;;;;;;5037459;28;19913;-27
2022/07/19 04:01:53;;;;;;;;;;;;;;;;;;5037277;28;19924;-27
2022/07/19 04:04:19;;;;;;;;;;;;;;;;;;5037202;28;20008;-27
2022/07/19 04:06:45;;;;;;;;;;;;;;;;;;5037015;28;19920;-27
2022/07/19 04:09:11;;;;;;;;;;;;;;;;;;5036968;28;19917;-27
2022/07/19 04:11:37;;;;;;;;;;;;;;;;;;5036993;28;19920;-27
2022/07/19 04:14:03;;;;;;;;;;;;;;;;;;5036933;28;19920;-27
2022/07/19 04:16:29;;;;;;;;;;;;;;;;;;5036767;28;19913;-26
2022/07/19 04:18:55;;;;;;;;;;;;;;;;;;5036789;28;19917;-27
2022/07/19 04:21:20;;;;;;;;;;;;;;;;;;5036771;28;20262;-27
2022/07/19 04:23:47;;;;;;;;;;;;;;;;;;5036591;28;19909;-27
2022/07/19 04:26:13;;;;;;;;;;;;;;;;;;5037696;28;19913;-27
2022/07/19 04:28:39;;;;;;;;;;;;;;;;;;5036490;28;20348;-27
2022/07/19 04:31:05;;;;;;;;;;;;;;;;;;5036797;28;19913;-27
2022/07/19 04:33:31;;;;;;;;;;;;;;;;;;5036406;28;19924;-27
2022/07/19 04:35:57;;;;;;;;;;;;;;;;;;5035432;28;20280;-27
2022/07/19 04:38:23;;;;;;;;;;;;;;;;;;5036353;28;19927;-27
2022/07/19 04:40:49;;;;;;;;;;;;;;;;;;5036566;28;19991;-27
2022/07/19 04:43:15;;;;;;;;;;;;;;;;;;5036733;28;20118;-27
2022/07/19 04:45:41;;;;;;;;;;;;;;;;;;5036740;28;20256;-27
2022/07/19 04:48:07;;;;;;;;;;;;;;;;;;5036111;28;19913;-27
2022/07/19 04:50:33;;;;;;;;;;;;;;;;;;5036512;28;19996;-27
2022/07/19 04:52:59;;;;;;;;;;;;;;;;;;5036650;28;20213;-27
2022/07/19 04:55:26;;;;;;;;;;;;;;;;;;5036351;28;19913;-27
2022/07/19 04:57:51;;;;;;;;;;;;;;;;;;5036262;28;19971;-27
2022/07/19 05:00:17;;;;;;;;;;;;;;;;;;5035965;28;19909;-27
2022/07/19 05:02:43;;;;;;;;;;;;;;;;;;5036124;28;19940;-27
2022/07/19 05:05:09;;;;;;;;;;;;;;;;;;5035813;28;19920;-27
2022/07/19 05:07:35;;;;;;;;;;;;;;;;;;5035788;28;19913;-27
2022/07/19 05:10:01;;;;;;;;;;;;;;;;;;5036087;28;20248;-27
2022/07/19 05:12:27;;;;;;;;;;;;;;;;;;5036003;28;19916;-26
2022/07/19 05:14:53;;;;;;;;;;;;;;;;;;5035784;28;19997;-27
2022/07/19 05:17:19;;;;;;;;;;;;;;;;;;5036009;28;20006;-27
2022/07/19 05:19:45;;;;;;;;;;;;;;;;;;5035803;28;19921;-27
2022/07/19 05:22:11;;;;;;;;;;;;;;;;;;5035606;28;19913;-27
2022/07/19 05:24:37;;;;;;;;;;;;;;;;;;5035621;28;20291;-27
2022/07/19 05:27:03;;;;;;;;;;;;;;;;;;5035526;28;19921;-27
2022/07/19 05:29:29;;;;;;;;;;;;;;;;;;5034524;28;19944;-27
2022/07/19 05:31:55;;;;;;;;;;;;;;;;;;5035661;28;19913;-27
2022/07/19 05:34:21;;;;;;;;;;;;;;;;;;5035517;28;20011;-28
2022/07/19 05:36:47;;;;;;;;;;;;;;;;;;5035401;28;19913;-27
2022/07/19 05:39:14;;;;;;;;;;;;;;;;;;5035600;28;19987;-27
2022/07/19 05:41:40;;;;;;;;;;;;;;;;;;5035510;28;19917;-27
2022/07/19 05:44:06;;;;;;;;;;;;;;;;;;5034964;28;20285;-27
2022/07/19 05:46:32;;;;;;;;;;;;;;;;;;5035408;28;19924;-27
2022/07/19 05:48:58;;;;;;;;;;;;;;;;;;5035738;28;20343;-27
2022/07/19 05:51:24;;;;;;;;;;;;;;;;;;5035156;28;19970;-27
2022/07/19 05:53:50;;;;;;;;;;;;;;;;;;5035004;28;19924;-27
2022/07/19 05:56:16;;;;;;;;;;;;;;;;;;5035097;28;19948;-27
2022/07/19 05:58:42;;;;;;;;;;;;;;;;;;5035325;28;19964;-27
2022/07/19 06:01:17;;;;;;;;;;;;;;;;;;5035671;28;19913;-27
2022/07/19 06:03:43;;;;;;;;;;;;;;;;;;5035301;28;19920;-27
2022/07/19 06:06:09;;;;;;;;;;;;;;;;;;5034902;28;20247;-27
2022/07/19 06:08:35;;;;;;;;;;;;;;;;;;5034981;28;19927;-27
2022/07/19 06:11:01;;;;;;;;;;;;;;;;;;5035160;28;20290;-27
2022/07/19 06:13:27;;;;;;;;;;;;;;;;;;5034806;28;19910;-27
2022/07/19 06:15:53;;;;;;;;;;;;;;;;;;5035435;28;19943;-27
2022/07/19 06:18:19;;;;;;;;;;;;;;;;;;5040739;28;19909;-27
2022/07/19 06:20:45;;;;;;;;;;;;;;;;;;5041477;28;19913;-27
2022/07/19 06:23:11;;;;;;;;;;;;;;;;;;5041586;28;19913;-27
2022/07/19 06:25:37;;;;;;;;;;;;;;;;;;5041394;28;19910;-27
2022/07/19 06:28:03;;;;;;;;;;;;;;;;;;5041308;28;19917;-27
2022/07/19 06:30:29;;;;;;;;;;;;;;;;;;5040206;28;20402;-27
2022/07/19 06:32:55;;;;;;;;;;;;;;;;;;5041213;28;19956;-27
2022/07/19 06:35:21;;;;;;;;;;;;;;;;;;5041292;28;19917;-27
2022/07/19 06:37:47;;;;;;;;;;;;;;;;;;5041339;28;19909;-27
2022/07/19 06:40:13;;;;;;;;;;;;;;;;;;5041824;28;19925;-27
2022/07/19 06:42:39;;;;;;;;;;;;;;;;;;5041106;28;20333;-27
2022/07/19 06:45:05;;;;;;;;;;;;;;;;;;5041076;28;19928;-27
2022/07/19 06:47:32;;;;;;;;;;;;;;;;;;5041240;28;19966;-27
2022/07/19 06:49:58;;;;;;;;;;;;;;;;;;5041359;28;20248;-27
2022/07/19 06:52:24;;;;;;;;;;;;;;;;;;5041169;28;19909;-27
2022/07/19 06:54:50;;;;;;;;;;;;;;;;;;5041117;28;20014;-27
2022/07/19 06:57:16;;;;;;;;;;;;;;;;;;5041194;28;19917;-27
2022/07/19 06:59:42;;;;;;;;;;;;;;;;;;5041174;28;19913;-27
2022/07/19 07:02:08;;;;;;;;;;;;;;;;;;5041015;28;19913;-27
2022/07/19 07:04:34;;;;;;;;;;;;;;;;;;5040142;28;19913;-27
2022/07/19 07:07:00;;;;;;;;;;;;;;;;;;5041679;28;19996;-27
2022/07/19 07:09:26;;;;;;;;;;;;;;;;;;5041025;28;19917;-27
2022/07/19 07:11:52;;;;;;;;;;;;;;;;;;5040895;28;19913;-27
2022/07/19 07:14:18;;;;;;;;;;;;;;;;;;5041044;28;20009;-27
2022/07/19 07:16:44;;;;;;;;;;;;;;;;;;5040925;28;19913;-27
2022/07/19 07:19:10;;;;;;;;;;;;;;;;;;5040926;28;19967;-27
2022/07/19 07:21:36;;;;;;;;;;;;;;;;;;5041167;28;20256;-27
2022/07/19 07:24:02;;;;;;;;;;;;;;;;;;5041438;28;19909;-27
2022/07/19 07:26:28;;;;;;;;;;;;;;;;;;5041126;28;20370;-26
2022/07/19 07:28:54;;;;;;;;;;;;;;;;;;5039284;28;20000;-27
2022/07/19 07:31:20;;;;;;;;;;;;;;;;;;5037738;28;19923;-27
2022/07/19 07:33:46;;;;;;;;;;;;;;;;;;5037615;28;19913;-27
2022/07/19 07:36:12;;;;;;;;;;;;;;;;;;5037487;28;20295;-27
2022/07/19 07:38:38;;;;;;;;;;;;;;;;;;5037539;28;19913;-27
2022/07/19 07:41:04;;;;;;;;;;;;;;;;;;5037525;28;19964;-27
2022/07/19 07:43:30;;;;;;;;;;;;;;;;;;5037310;28;19933;-27
2022/07/19 07:45:56;;;;;;;;;;;;;;;;;;5037813;28;19917;-27
2022/07/19 07:48:22;;;;;;;;;;;;;;;;;;5037201;28;19924;-27
2022/07/19 07:50:48;;;;;;;;;;;;;;;;;;5037433;28;19995;-27
2022/07/19 07:53:14;;;;;;;;;;;;;;;;;;5037175;28;19920;-27
2022/07/19 07:55:40;;;;;;;;;;;;;;;;;;5037343;28;19917;-27
2022/07/19 07:58:06;;;;;;;;;;;;;;;;;;5037506;28;20006;-27
2022/07/19 08:00:32;;;;;;;;;;;;;;;;;;5037744;28;20379;-27
2022/07/19 08:02:58;;;;;;;;;;;;;;;;;;5037088;28;19968;-27
2022/07/19 08:05:24;;;;;;;;;;;;;;;;;;5037426;28;20217;-27
2022/07/19 08:07:50;;;;;;;;;;;;;;;;;;5037046;28;20382;-27
2022/07/19 08:10:16;;;;;;;;;;;;;;;;;;5035994;28;19940;-27
2022/07/19 08:12:42;;;;;;;;;;;;;;;;;;5037330;28;19913;-27
2022/07/19 08:15:08;;;;;;;;;;;;;;;;;;5036913;28;20348;-27
2022/07/19 08:17:34;;;;;;;;;;;;;;;;;;5036742;28;19913;-27
2022/07/19 08:20:00;;;;;;;;;;;;;;;;;;5035836;28;20344;-27
2022/07/19 08:22:28;;;;;;;;;;;;;;;;;;5036610;28;19948;-27
2022/07/19 08:24:54;;;;;;;;;;;;;;;;;;5036674;28;19909;-27
2022/07/19 08:27:20;;;;;;;;;;;;;;;;;;5036659;28;19913;-27
2022/07/19 08:29:46;;;;;;;;;;;;;;;;;;5037088;28;19913;-27
2022/07/19 08:32:12;;;;;;;;;;;;;;;;;;5036449;28;19913;-27
2022/07/19 08:34:38;;;;;;;;;;;;;;;;;;5036760;28;19916;-27
2022/07/19 08:37:04;;;;;;;;;;;;;;;;;;5036756;28;20248;-27
2022/07/19 08:39:30;;;;;;;;;;;;;;;;;;5036320;28;19943;-27
2022/07/19 08:41:56;;;;;;;;;;;;;;;;;;5036666;28;20084;-27
2022/07/19 08:44:22;;;;;;;;;;;;;;;;;;5036198;28;19944;-27
2022/07/19 08:46:48;;;;;;;;;;;;;;;;;;5036539;28;20225;-27
2022/07/19 08:49:14;;;;;;;;;;;;;;;;;;5036146;28;19924;-27
2022/07/19 08:51:40;;;;;;;;;;;;;;;;;;5036933;28;19924;-27
2022/07/19 08:54:06;;;;;;;;;;;;;;;;;;5036458;28;20027;-27
2022/07/19 08:59:17;;;;;;;;;;;;;;;;;;5036355;28;20252;-27
2022/07/19 09:01:43;;;;;;;;;;;;;;;;;;5035956;28;19917;-27
2022/07/19 09:04:09;;;;;;;;;;;;;;;;;;5035990;28;20333;-27
2022/07/19 09:06:35;;;;;;;;;;;;;;;;;;5035961;28;19943;-27
2022/07/19 09:09:01;;;;;;;;;;;;;;;;;;5035834;28;19917;-27
2022/07/19 09:11:27;;;;;;;;;;;;;;;;;;5035898;28;19932;-26
2022/07/19 09:13:53;;;;;;;;;;;;;;;;;;5035767;28;19913;-27
2022/07/19 09:16:19;;;;;;;;;;;;;;;;;;5035804;28;20360;-27
2022/07/19 09:18:46;;;;;;;;;;;;;;;;;;5035782;28;20003;-27
2022/07/19 09:21:12;;;;;;;;;;;;;;;;;;5036013;28;20211;-27
2022/07/19 09:23:38;;;;;;;;;;;;;;;;;;5035935;28;20043;-27
2022/07/19 09:26:04;;;;;;;;;;;;;;;;;;5035905;28;20276;-26
2022/07/19 09:28:31;;;;;;;;;;;;;;;;;;5035740;28;19928;-27
2022/07/19 09:30:57;;;;;;;;;;;;;;;;;;5036149;28;20340;-27
2022/07/19 09:33:23;;;;;;;;;;;;;;;;;;5035304;28;19913;-27
2022/07/19 09:35:49;;;;;;;;;;;;;;;;;;5035555;28;20256;-27
2022/07/19 09:38:15;;;;;;;;;;;;;;;;;;5035249;28;19909;-27
2022/07/19 09:40:41;;;;;;;;;;;;;;;;;;5035856;28;19917;-27
2022/07/19 09:43:07;;;;;;;;;;;;;;;;;;5035408;28;20248;-27
2022/07/19 09:45:33;;;;;;;;;;;;;;;;;;5035012;28;19932;-27
2022/07/19 09:48:00;;;;;;;;;;;;;;;;;;5035037;28;19920;-27
2022/07/19 09:50:26;;;;;;;;;;;;;;;;;;5035377;28;19909;-27
2022/07/19 09:52:52;;;;;;;;;;;;;;;;;;5034273;28;20388;-27
2022/07/19 09:55:18;;;;;;;;;;;;;;;;;;5035380;28;19920;-27
2022/07/19 09:57:44;;;;;;;;;;;;;;;;;;5035069;28;20336;-27
2022/07/19 10:00:11;;;;;;;;;;;;;;;;;;5035324;28;19909;-27
2022/07/19 10:02:37;;;;;;;;;;;;;;;;;;5033904;28;20403;-27
2022/07/19 10:05:03;;;;;;;;;;;;;;;;;;5035525;28;20344;-26
2022/07/19 10:07:29;;;;;;;;;;;;;;;;;;5033883;28;20291;-26
2022/07/19 10:09:55;;;;;;;;;;;;;;;;;;5035023;28;19952;-27
2022/07/19 10:12:20;;;;;;;;;;;;;;;;;;5035155;28;19913;-27
2022/07/19 10:14:46;;;;;;;;;;;;;;;;;;5034953;28;19917;-27
2022/07/19 10:17:12;;;;;;;;;;;;;;;;;;5033961;28;19913;-27
2022/07/19 10:19:38;;;;;;;;;;;;;;;;;;5034899;28;19914;-27
2022/07/19 10:22:04;;;;;;;;;;;;;;;;;;5035346;28;20004;-26
2022/07/19 10:24:30;;;;;;;;;;;;;;;;;;5035330;28;19952;-26
2022/07/19 10:26:56;;;;;;;;;;;;;;;;;;5034721;28;20000;-26
2022/07/19 10:29:22;;;;;;;;;;;;;;;;;;5035224;28;20016;-26
2022/07/19 10:31:48;;;;;;;;;;;;;;;;;;5034705;28;20310;-26
2022/07/19 10:34:14;;;;;;;;;;;;;;;;;;5034842;28;19964;-26
2022/07/19 10:36:40;;;;;;;;;;;;;;;;;;5033845;28;19917;-27
2022/07/19 10:39:06;;;;;;;;;;;;;;;;;;5034724;28;19917;-26
2022/07/19 10:41:32;;;;;;;;;;;;;;;;;;5034978;28;19913;-26
2022/07/19 10:43:58;;;;;;;;;;;;;;;;;;5034829;28;19921;-26
2022/07/19 10:46:24;;;;;;;;;;;;;;;;;;5034681;28;20363;-27
2022/07/19 10:48:50;;;;;;;;;;;;;;;;;;5034828;28;20048;-26
2022/07/19 10:51:16;;;;;;;;;;;;;;;;;;5034510;28;19913;-26
2022/07/19 10:53:42;;;;;;;;;;;;;;;;;;5034513;28;19917;-27
2022/07/19 10:56:08;;;;;;;;;;;;;;;;;;5034501;28;19940;-26
2022/07/19 10:58:34;;;;;;;;;;;;;;;;;;5034896;28;19964;-26
2022/07/19 11:01:03;;;;;;;;;;;;;;;;;;5034506;28;19917;-27
2022/07/19 11:03:29;;;;;;;;;;;;;;;;;;5035659;28;19908;-27
2022/07/19 11:05:55;;;;;;;;;;;;;;;;;;5038636;28;19944;-26
2022/07/19 11:08:21;;;;;;;;;;;;;;;;;;5038516;28;19975;-26
2022/07/19 11:10:47;;;;;;;;;;;;;;;;;;5038808;28;19920;-26
2022/07/19 11:13:13;;;;;;;;;;;;;;;;;;5038174;28;19963;-26
2022/07/19 11:15:40;;;;;;;;;;;;;;;;;;5038096;28;19913;-26
2022/07/19 11:18:06;;;;;;;;;;;;;;;;;;5038366;28;20251;-26
2022/07/19 11:20:32;;;;;;;;;;;;;;;;;;5037896;28;19913;-26
2022/07/19 11:22:58;;;;;;;;;;;;;;;;;;5037962;28;19909;-27
2022/07/19 11:25:24;;;;;;;;;;;;;;;;;;5038070;28;19966;-28
2022/07/19 11:27:50;;;;;;;;;;;;;;;;;;5037706;28;19917;-27
2022/07/19 11:30:16;;;;;;;;;;;;;;;;;;5037914;28;20439;-26
2022/07/19 11:32:42;;;;;;;;;;;;;;;;;;5036745;28;20026;-26
2022/07/19 11:35:08;;;;;;;;;;;;;;;;;;5037717;28;19920;-26
2022/07/19 11:37:34;;;;;;;;;;;;;;;;;;5037708;28;19909;-26
2022/07/19 11:40:00;;;;;;;;;;;;;;;;;;5037920;28;19917;-26
2022/07/19 11:42:26;;;;;;;;;;;;;;;;;;5037569;28;20263;-26
2022/07/19 11:44:54;;;;;;;;;;;;;;;;;;5037492;28;20264;-26
2022/07/19 11:47:21;;;;;;;;;;;;;;;;;;5037815;28;19967;-26
2022/07/19 11:49:46;;;;;;;;;;;;;;;;;;5037473;28;19960;-26
2022/07/19 11:52:12;;;;;;;;;;;;;;;;;;5037781;28;19951;-26
2022/07/19 11:54:38;;;;;;;;;;;;;;;;;;5037415;28;19921;-27
2022/07/19 11:57:04;;;;;;;;;;;;;;;;;;5037294;28;20252;-26
2022/07/19 11:59:30;;;;;;;;;;;;;;;;;;5037343;28;19913;-26
2022/07/19 12:01:57;;;;;;;;;;;;;;;;;;5037771;28;19967;-26
2022/07/19 12:04:23;;;;;;;;;;;;;;;;;;5037488;28;20264;-26
2022/07/19 12:06:50;;;;;;;;;;;;;;;;;;5037552;28;19909;-26
2022/07/19 12:09:16;;;;;;;;;;;;;;;;;;5037346;28;19940;-27
2022/07/19 12:11:42;;;;;;;;;;;;;;;;;;5037058;28;19913;-26
2022/07/19 12:14:08;;;;;;;;;;;;;;;;;;5037475;28;19909;-27
2022/07/19 12:16:34;;;;;;;;;;;;;;;;;;5036392;28;19913;-27
2022/07/19 12:19:00;;;;;;;;;;;;;;;;;;5037191;28;19959;-27
2022/07/19 12:21:26;;;;;;;;;;;;;;;;;;5036922;28;20314;-26
2022/07/19 12:23:52;;;;;;;;;;;;;;;;;;5036749;28;19924;-27
2022/07/19 12:26:18;;;;;;;;;;;;;;;;;;5036812;28;19913;-27
2022/07/19 12:28:44;;;;;;;;;;;;;;;;;;5037146;28;19913;-27
2022/07/19 12:31:10;;;;;;;;;;;;;;;;;;5037290;28;19917;-27
2022/07/19 12:33:39;;;;;;;;;;;;;;;;;;5036603;28;19916;-27
2022/07/19 12:36:05;;;;;;;;;;;;;;;;;;5036550;28;19920;-27
2022/07/19 12:38:32;;;;;;;;;;;;;;;;;;5036601;28;19909;-27
2022/07/19 12:40:58;;;;;;;;;;;;;;;;;;5036530;28;19909;-27
2022/07/19 12:43:24;;;;;;;;;;;;;;;;;;5036124;28;19913;-27
2022/07/19 12:45:49;;;;;;;;;;;;;;;;;;5036685;28;20298;-26
2022/07/19 12:48:15;;;;;;;;;;;;;;;;;;5036215;28;20008;-27
2022/07/19 12:50:41;;;;;;;;;;;;;;;;;;5036336;28;19971;-27
2022/07/19 12:53:07;;;;;;;;;;;;;;;;;;5036236;28;19913;-27
2022/07/19 12:55:33;;;;;;;;;;;;;;;;;;5036602;28;19967;-27
2022/07/19 12:57:59;;;;;;;;;;;;;;;;;;5036774;28;19924;-27
2022/07/19 13:00:25;;;;;;;;;;;;;;;;;;5036166;28;19913;-27
2022/07/19 13:02:51;;;;;;;;;;;;;;;;;;5036191;28;20248;-27
2022/07/19 13:05:17;;;;;;;;;;;;;;;;;;5036657;28;19917;-27
2022/07/19 13:07:43;;;;;;;;;;;;;;;;;;5036841;28;19914;-27
2022/07/19 13:10:09;;;;;;;;;;;;;;;;;;5035779;28;19928;-27
2022/07/19 13:12:35;;;;;;;;;;;;;;;;;;5036126;28;20255;-28
2022/07/19 13:15:01;;;;;;;;;;;;;;;;;;5036457;28;19920;-27
2022/07/19 13:17:27;;;;;;;;;;;;;;;;;;5035811;28;19913;-27
2022/07/19 13:19:53;;;;;;;;;;;;;;;;;;5035771;28;19909;-27
2022/07/19 13:22:19;;;;;;;;;;;;;;;;;;5036274;28;19913;-27
2022/07/19 13:24:45;;;;;;;;;;;;;;;;;;5036289;28;20236;-27
2022/07/19 13:27:11;;;;;;;;;;;;;;;;;;5035925;28;20314;-27
2022/07/19 13:29:38;;;;;;;;;;;;;;;;;;5035849;28;19956;-27
2022/07/19 13:32:04;;;;;;;;;;;;;;;;;;5035506;28;19913;-26
2022/07/19 13:34:30;;;;;;;;;;;;;;;;;;5035603;28;19916;-26
2022/07/19 13:36:56;;;;;;;;;;;;;;;;;;5035496;28;19925;-26
2022/07/19 13:39:22;;;;;;;;;;;;;;;;;;5035582;28;19909;-26
2022/07/19 13:41:49;;;;;;;;;;;;;;;;;;5035651;28;19917;-26
2022/07/19 13:44:15;;;;;;;;;;;;;;;;;;5035257;28;19921;-26
2022/07/19 13:46:41;;;;;;;;;;;;;;;;;;5035430;28;19920;-27
2022/07/19 13:49:07;;;;;;;;;;;;;;;;;;5035889;28;19921;-27
2022/07/19 13:51:33;;;;;;;;;;;;;;;;;;5035342;28;19920;-27
2022/07/19 13:53:59;;;;;;;;;;;;;;;;;;5035410;28;19909;-27
2022/07/19 13:56:25;;;;;;;;;;;;;;;;;;5035185;28;19917;-27
2022/07/19 13:58:51;;;;;;;;;;;;;;;;;;5035481;28;19913;-27
2022/07/19 14:01:17;;;;;;;;;;;;;;;;;;5036026;28;19913;-27
2022/07/19 14:03:43;;;;;;;;;;;;;;;;;;5035072;28;20336;-27
2022/07/19 14:06:09;;;;;;;;;;;;;;;;;;5035622;28;19966;-27
2022/07/19 14:08:35;;;;;;;;;;;;;;;;;;5035378;28;20015;-27
2022/07/19 14:11:01;;;;;;;;;;;;;;;;;;5035129;28;19917;-27
2022/07/19 14:13:27;;;;;;;;;;;;;;;;;;5035052;28;20235;-27
2022/07/19 14:15:53;;;;;;;;;;;;;;;;;;5035235;28;20256;-27
2022/07/19 14:18:19;;;;;;;;;;;;;;;;;;5035338;28;19909;-27
2022/07/19 14:20:45;;;;;;;;;;;;;;;;;;5035011;28;19913;-27
2022/07/19 14:23:11;;;;;;;;;;;;;;;;;;5035185;28;19963;-27
2022/07/19 14:25:37;;;;;;;;;;;;;;;;;;5035299;28;20248;-27
2022/07/19 14:28:03;;;;;;;;;;;;;;;;;;5034874;28;19916;-27
2022/07/19 14:30:29;;;;;;;;;;;;;;;;;;5034895;28;19923;-27
2022/07/19 14:32:55;;;;;;;;;;;;;;;;;;5035105;28;19917;-27
2022/07/19 14:35:21;;;;;;;;;;;;;;;;;;5034909;28;19913;-27
2022/07/19 14:37:47;;;;;;;;;;;;;;;;;;5035154;28;19940;-27
2022/07/19 14:40:13;;;;;;;;;;;;;;;;;;5038951;28;19909;-27
2022/07/19 14:42:39;;;;;;;;;;;;;;;;;;5039329;28;19920;-26
2022/07/19 14:45:06;;;;;;;;;;;;;;;;;;5038632;28;20360;-27
2022/07/19 14:47:32;;;;;;;;;;;;;;;;;;5038985;28;19914;-27
2022/07/19 14:49:58;;;;;;;;;;;;;;;;;;5039227;28;20257;-27
2022/07/19 14:52:23;;;;;;;;;;;;;;;;;;5038515;28;20240;-27
2022/07/19 14:54:49;;;;;;;;;;;;;;;;;;5037704;28;19940;-27
2022/07/19 14:57:15;;;;;;;;;;;;;;;;;;5038487;28;19963;-27
2022/07/19 14:59:41;;;;;;;;;;;;;;;;;;5038354;28;20268;-27
2022/07/19 15:02:08;;;;;;;;;;;;;;;;;;5038189;28;19913;-27
2022/07/19 15:04:34;;;;;;;;;;;;;;;;;;5038312;28;20336;-27
2022/07/19 15:07:00;;;;;;;;;;;;;;;;;;5038303;28;19913;-27
2022/07/19 15:09:26;;;;;;;;;;;;;;;;;;5038254;28;19987;-27
2022/07/19 15:11:52;;;;;;;;;;;;;;;;;;5038370;28;19914;-26
2022/07/19 15:14:18;;;;;;;;;;;;;;;;;;5038162;28;19936;-27
2022/07/19 15:16:44;;;;;;;;;;;;;;;;;;5038724;28;19913;-27
2022/07/19 15:19:10;;;;;;;;;;;;;;;;;;5038952;28;19921;-27
2022/07/19 15:21:37;;;;;;;;;;;;;;;;;;5038660;28;20256;-27
2022/07/19 15:24:03;;;;;;;;;;;;;;;;;;5038298;28;19948;-27
2022/07/19 15:26:29;;;;;;;;;;;;;;;;;;5038289;28;20263;-27
2022/07/19 15:28:55;;;;;;;;;;;;;;;;;;5038489;28;19917;-27
2022/07/19 15:31:21;;;;;;;;;;;;;;;;;;5038136;28;19917;-26
2022/07/19 15:33:47;;;;;;;;;;;;;;;;;;5037718;28;19924;-27
2022/07/19 15:36:13;;;;;;;;;;;;;;;;;;5038060;28;19913;-27
2022/07/19 15:38:39;;;;;;;;;;;;;;;;;;5037940;28;19936;-27
2022/07/19 15:41:04;;;;;;;;;;;;;;;;;;5037620;28;19913;-27
2022/07/19 15:43:30;;;;;;;;;;;;;;;;;;5037366;28;19920;-27
2022/07/19 15:45:56;;;;;;;;;;;;;;;;;;5038189;28;19925;-27
2022/07/19 15:48:22;;;;;;;;;;;;;;;;;;5037521;28;20379;-27
2022/07/19 15:50:48;;;;;;;;;;;;;;;;;;5036136;28;20392;-27
2022/07/19 15:53:14;;;;;;;;;;;;;;;;;;5037424;28;20010;-27
2022/07/19 15:55:40;;;;;;;;;;;;;;;;;;5037473;28;19917;-27
2022/07/19 15:58:06;;;;;;;;;;;;;;;;;;5036867;28;19913;-26
2022/07/19 16:00:33;;;;;;;;;;;;;;;;;;5036868;28;20272;-26
2022/07/19 16:02:59;;;;;;;;;;;;;;;;;;5037451;28;19952;-26
2022/07/19 16:05:25;;;;;;;;;;;;;;;;;;5037244;28;19921;-27
2022/07/19 16:07:51;;;;;;;;;;;;;;;;;;5037223;28;19924;-26
2022/07/19 16:10:17;;;;;;;;;;;;;;;;;;5037154;28;19920;-27
2022/07/19 16:12:43;;;;;;;;;;;;;;;;;;5036927;28;19913;-26
2022/07/19 16:15:09;;;;;;;;;;;;;;;;;;5037346;28;19920;-27
2022/07/19 16:17:35;;;;;;;;;;;;;;;;;;5036970;28;19913;-27
2022/07/19 16:20:01;;;;;;;;;;;;;;;;;;5037031;28;19936;-28
2022/07/19 16:22:28;;;;;;;;;;;;;;;;;;5036884;28;20337;-27
2022/07/19 16:24:54;;;;;;;;;;;;;;;;;;5037069;28;19913;-27
2022/07/19 16:27:20;;;;;;;;;;;;;;;;;;5036829;28;19971;-26
2022/07/19 16:29:46;;;;;;;;;;;;;;;;;;5036945;28;20217;-27
2022/07/19 16:32:12;;;;;;;;;;;;;;;;;;5036675;28;19967;-26
2022/07/19 16:34:38;;;;;;;;;;;;;;;;;;5036704;28;19963;-26
2022/07/19 16:37:06;;;;;;;;;;;;;;;;;;5036474;28;19913;-26
2022/07/19 16:39:32;;;;;;;;;;;;;;;;;;5036935;28;19909;-27
2022/07/19 16:41:58;;;;;;;;;;;;;;;;;;5036579;28;20375;-27